sensor_id;sensor_type;location;lat;lon;timestamp;P1;durP1;ratioP1;P2;durP2;ratioP2
80908;SDS011;70358;56.958;24.126;2023-12-20T00:01:44;5.57;;;2.00;;
80908;SDS011;70358;56.958;24.126;2023-12-20T00:04:10;4.43;;;1.73;;
80908;SDS011;70358;56.958;24.126;2023-12-20T00:06:36;7.00;;;1.88;;
80908;SDS011;70358;56.958;24.126;2023-12-20T00:09:02;5.60;;;1.60;;
80908;SDS011;70358;56.958;24.126;2023-12-20T00:11:27;5.35;;;2.25;;
80908;SDS011;70358;56.958;24.126;2023-12-20T00:13:52;6.10;;;1.77;;
80908;SDS011;70358;56.958;24.126;2023-12-20T00:16:18;4.63;;;1.30;;
80908;SDS011;70358;56.958;24.126;2023-12-20T00:18:43;5.97;;;1.80;;
80908;SDS011;70358;56.958;24.126;2023-12-20T00:21:10;6.47;;;1.85;;
80908;SDS011;70358;56.958;24.126;2023-12-20T00:23:35;5.80;;;1.67;;
80908;SDS011;70358;56.958;24.126;2023-12-20T00:26:00;4.03;;;1.50;;
80908;SDS011;70358;56.958;24.126;2023-12-20T00:28:26;6.40;;;1.88;;
80908;SDS011;70358;56.958;24.126;2023-12-20T00:30:51;8.45;;;2.15;;
80908;SDS011;70358;56.958;24.126;2023-12-20T00:33:17;6.47;;;1.83;;
80908;SDS011;70358;56.958;24.126;2023-12-20T00:35:42;3.63;;;1.20;;
80908;SDS011;70358;56.958;24.126;2023-12-20T00:38:07;5.40;;;1.63;;
80908;SDS011;70358;56.958;24.126;2023-12-20T00:40:34;5.65;;;2.00;;
80908;SDS011;70358;56.958;24.126;2023-12-20T00:42:59;6.15;;;1.38;;
80908;SDS011;70358;56.958;24.126;2023-12-20T00:45:25;3.60;;;1.30;;
80908;SDS011;70358;56.958;24.126;2023-12-20T00:47:50;4.77;;;1.77;;
80908;SDS011;70358;56.958;24.126;2023-12-20T00:50:16;4.35;;;1.42;;
80908;SDS011;70358;56.958;24.126;2023-12-20T00:52:41;4.60;;;1.73;;
80908;SDS011;70358;56.958;24.126;2023-12-20T00:55:06;6.90;;;1.75;;
80908;SDS011;70358;56.958;24.126;2023-12-20T00:57:32;5.82;;;1.73;;
80908;SDS011;70358;56.958;24.126;2023-12-20T00:59:58;4.95;;;1.50;;
80908;SDS011;70358;56.958;24.126;2023-12-20T01:02:23;4.40;;;1.77;;
80908;SDS011;70358;56.958;24.126;2023-12-20T01:04:49;5.88;;;1.88;;
80908;SDS011;70358;56.958;24.126;2023-12-20T01:07:14;7.03;;;1.75;;
80908;SDS011;70358;56.958;24.126;2023-12-20T01:09:39;4.95;;;2.08;;
80908;SDS011;70358;56.958;24.126;2023-12-20T01:12:05;3.20;;;1.30;;
80908;SDS011;70358;56.958;24.126;2023-12-20T01:14:30;5.90;;;1.70;;
80908;SDS011;70358;56.958;24.126;2023-12-20T01:16:56;5.95;;;1.25;;
80908;SDS011;70358;56.958;24.126;2023-12-20T01:19:21;4.18;;;1.40;;
80908;SDS011;70358;56.958;24.126;2023-12-20T01:21:47;3.45;;;1.40;;
80908;SDS011;70358;56.958;24.126;2023-12-20T01:24:13;5.78;;;1.73;;
80908;SDS011;70358;56.958;24.126;2023-12-20T01:26:38;6.70;;;2.10;;
80908;SDS011;70358;56.958;24.126;2023-12-20T01:29:03;5.57;;;1.70;;
80908;SDS011;70358;56.958;24.126;2023-12-20T01:31:29;4.43;;;1.38;;
80908;SDS011;70358;56.958;24.126;2023-12-20T01:33:54;6.90;;;2.60;;
80908;SDS011;70358;56.958;24.126;2023-12-20T01:36:21;5.15;;;1.70;;
80908;SDS011;70358;56.958;24.126;2023-12-20T01:38:47;4.97;;;1.45;;
80908;SDS011;70358;56.958;24.126;2023-12-20T01:41:13;5.50;;;1.48;;
80908;SDS011;70358;56.958;24.126;2023-12-20T01:43:38;3.90;;;1.52;;
80908;SDS011;70358;56.958;24.126;2023-12-20T01:46:04;4.50;;;1.50;;
80908;SDS011;70358;56.958;24.126;2023-12-20T01:48:29;5.10;;;1.80;;
80908;SDS011;70358;56.958;24.126;2023-12-20T01:50:57;6.45;;;2.42;;
80908;SDS011;70358;56.958;24.126;2023-12-20T01:53:24;3.92;;;1.42;;
80908;SDS011;70358;56.958;24.126;2023-12-20T01:55:50;6.28;;;1.90;;
80908;SDS011;70358;56.958;24.126;2023-12-20T01:58:17;7.47;;;2.15;;
80908;SDS011;70358;56.958;24.126;2023-12-20T02:00:43;4.55;;;1.60;;
80908;SDS011;70358;56.958;24.126;2023-12-20T02:05:41;5.53;;;1.85;;
80908;SDS011;70358;56.958;24.126;2023-12-20T02:08:07;5.43;;;1.90;;
80908;SDS011;70358;56.958;24.126;2023-12-20T02:10:32;3.70;;;1.48;;
80908;SDS011;70358;56.958;24.126;2023-12-20T02:12:58;5.00;;;1.52;;
80908;SDS011;70358;56.958;24.126;2023-12-20T02:15:23;5.50;;;1.90;;
80908;SDS011;70358;56.958;24.126;2023-12-20T02:17:49;7.13;;;1.95;;
80908;SDS011;70358;56.958;24.126;2023-12-20T02:20:15;5.85;;;1.88;;
80908;SDS011;70358;56.958;24.126;2023-12-20T02:22:40;7.43;;;1.67;;
80908;SDS011;70358;56.958;24.126;2023-12-20T02:25:05;4.97;;;1.63;;
80908;SDS011;70358;56.958;24.126;2023-12-20T02:27:31;6.22;;;1.70;;
80908;SDS011;70358;56.958;24.126;2023-12-20T02:29:56;5.53;;;1.60;;
80908;SDS011;70358;56.958;24.126;2023-12-20T02:32:22;7.93;;;2.50;;
80908;SDS011;70358;56.958;24.126;2023-12-20T02:34:51;5.50;;;1.70;;
80908;SDS011;70358;56.958;24.126;2023-12-20T02:37:16;4.65;;;1.42;;
80908;SDS011;70358;56.958;24.126;2023-12-20T02:39:42;6.03;;;1.50;;
80908;SDS011;70358;56.958;24.126;2023-12-20T02:42:07;4.82;;;1.80;;
80908;SDS011;70358;56.958;24.126;2023-12-20T02:44:33;4.97;;;1.58;;
80908;SDS011;70358;56.958;24.126;2023-12-20T02:46:58;5.32;;;1.50;;
80908;SDS011;70358;56.958;24.126;2023-12-20T02:49:23;4.57;;;1.20;;
80908;SDS011;70358;56.958;24.126;2023-12-20T02:51:49;4.60;;;1.40;;
80908;SDS011;70358;56.958;24.126;2023-12-20T02:54:14;4.25;;;1.35;;
80908;SDS011;70358;56.958;24.126;2023-12-20T02:56:40;5.95;;;1.35;;
80908;SDS011;70358;56.958;24.126;2023-12-20T02:59:05;6.00;;;2.15;;
80908;SDS011;70358;56.958;24.126;2023-12-20T03:01:31;7.20;;;1.58;;
80908;SDS011;70358;56.958;24.126;2023-12-20T03:03:56;7.63;;;1.75;;
80908;SDS011;70358;56.958;24.126;2023-12-20T03:06:22;5.63;;;1.75;;
80908;SDS011;70358;56.958;24.126;2023-12-20T03:08:47;5.05;;;1.58;;
80908;SDS011;70358;56.958;24.126;2023-12-20T03:11:13;4.97;;;1.70;;
80908;SDS011;70358;56.958;24.126;2023-12-20T03:13:38;6.38;;;1.70;;
80908;SDS011;70358;56.958;24.126;2023-12-20T03:16:10;9.00;;;2.47;;
80908;SDS011;70358;56.958;24.126;2023-12-20T03:18:36;6.85;;;1.40;;
80908;SDS011;70358;56.958;24.126;2023-12-20T03:21:01;6.70;;;2.10;;
80908;SDS011;70358;56.958;24.126;2023-12-20T03:23:27;5.70;;;1.85;;
80908;SDS011;70358;56.958;24.126;2023-12-20T03:25:52;8.00;;;1.63;;
80908;SDS011;70358;56.958;24.126;2023-12-20T03:28:19;5.60;;;1.38;;
80908;SDS011;70358;56.958;24.126;2023-12-20T03:30:44;4.63;;;1.48;;
80908;SDS011;70358;56.958;24.126;2023-12-20T03:33:10;7.15;;;1.40;;
80908;SDS011;70358;56.958;24.126;2023-12-20T03:35:35;4.22;;;1.50;;
80908;SDS011;70358;56.958;24.126;2023-12-20T03:38:01;4.07;;;1.40;;
80908;SDS011;70358;56.958;24.126;2023-12-20T03:40:26;5.70;;;1.63;;
80908;SDS011;70358;56.958;24.126;2023-12-20T03:42:52;5.50;;;1.60;;
80908;SDS011;70358;56.958;24.126;2023-12-20T03:45:17;5.82;;;1.35;;
80908;SDS011;70358;56.958;24.126;2023-12-20T03:47:43;7.25;;;1.42;;
80908;SDS011;70358;56.958;24.126;2023-12-20T03:50:08;3.40;;;1.25;;
80908;SDS011;70358;56.958;24.126;2023-12-20T03:52:33;5.97;;;1.60;;
80908;SDS011;70358;56.958;24.126;2023-12-20T03:54:59;6.57;;;1.43;;
80908;SDS011;70358;56.958;24.126;2023-12-20T03:57:24;7.15;;;1.55;;
80908;SDS011;70358;56.958;24.126;2023-12-20T03:59:49;6.07;;;1.40;;
80908;SDS011;70358;56.958;24.126;2023-12-20T04:02:15;3.95;;;1.20;;
80908;SDS011;70358;56.958;24.126;2023-12-20T04:04:40;5.45;;;1.48;;
80908;SDS011;70358;56.958;24.126;2023-12-20T04:07:07;6.13;;;1.50;;
80908;SDS011;70358;56.958;24.126;2023-12-20T04:09:32;4.70;;;1.13;;
80908;SDS011;70358;56.958;24.126;2023-12-20T04:11:57;6.47;;;1.70;;
80908;SDS011;70358;56.958;24.126;2023-12-20T04:14:23;4.38;;;1.42;;
80908;SDS011;70358;56.958;24.126;2023-12-20T04:16:49;5.40;;;1.50;;
80908;SDS011;70358;56.958;24.126;2023-12-20T04:19:15;3.67;;;1.13;;
80908;SDS011;70358;56.958;24.126;2023-12-20T04:21:40;3.13;;;1.37;;
80908;SDS011;70358;56.958;24.126;2023-12-20T04:24:06;5.95;;;1.50;;
80908;SDS011;70358;56.958;24.126;2023-12-20T04:26:31;3.70;;;1.10;;
80908;SDS011;70358;56.958;24.126;2023-12-20T04:28:58;5.57;;;1.50;;
80908;SDS011;70358;56.958;24.126;2023-12-20T04:31:24;4.72;;;1.45;;
80908;SDS011;70358;56.958;24.126;2023-12-20T04:33:49;6.38;;;1.60;;
80908;SDS011;70358;56.958;24.126;2023-12-20T04:36:14;3.70;;;1.67;;
80908;SDS011;70358;56.958;24.126;2023-12-20T04:38:40;4.53;;;1.48;;
80908;SDS011;70358;56.958;24.126;2023-12-20T04:41:05;4.95;;;1.40;;
80908;SDS011;70358;56.958;24.126;2023-12-20T04:43:31;5.32;;;1.35;;
80908;SDS011;70358;56.958;24.126;2023-12-20T04:45:56;7.57;;;2.20;;
80908;SDS011;70358;56.958;24.126;2023-12-20T04:48:21;3.65;;;1.45;;
80908;SDS011;70358;56.958;24.126;2023-12-20T04:50:47;7.00;;;1.58;;
80908;SDS011;70358;56.958;24.126;2023-12-20T04:53:12;6.18;;;1.90;;
80908;SDS011;70358;56.958;24.126;2023-12-20T04:55:38;4.15;;;1.48;;
80908;SDS011;70358;56.958;24.126;2023-12-20T04:58:04;8.27;;;1.30;;
80908;SDS011;70358;56.958;24.126;2023-12-20T05:00:29;6.93;;;1.80;;
80908;SDS011;70358;56.958;24.126;2023-12-20T05:02:55;4.63;;;1.52;;
80908;SDS011;70358;56.958;24.126;2023-12-20T05:05:20;4.13;;;1.38;;
80908;SDS011;70358;56.958;24.126;2023-12-20T05:07:46;5.30;;;1.38;;
80908;SDS011;70358;56.958;24.126;2023-12-20T05:10:11;3.88;;;1.33;;
80908;SDS011;70358;56.958;24.126;2023-12-20T05:12:36;3.95;;;1.33;;
80908;SDS011;70358;56.958;24.126;2023-12-20T05:15:02;6.85;;;1.60;;
80908;SDS011;70358;56.958;24.126;2023-12-20T05:17:28;4.63;;;1.25;;
80908;SDS011;70358;56.958;24.126;2023-12-20T05:19:53;4.00;;;1.38;;
80908;SDS011;70358;56.958;24.126;2023-12-20T05:22:18;4.90;;;1.10;;
80908;SDS011;70358;56.958;24.126;2023-12-20T05:24:45;5.03;;;1.40;;
80908;SDS011;70358;56.958;24.126;2023-12-20T05:27:10;4.65;;;1.30;;
80908;SDS011;70358;56.958;24.126;2023-12-20T05:29:36;4.78;;;1.52;;
80908;SDS011;70358;56.958;24.126;2023-12-20T05:32:02;3.50;;;1.17;;
80908;SDS011;70358;56.958;24.126;2023-12-20T05:34:29;3.95;;;1.40;;
80908;SDS011;70358;56.958;24.126;2023-12-20T05:36:55;5.20;;;1.35;;
80908;SDS011;70358;56.958;24.126;2023-12-20T05:39:21;5.82;;;1.40;;
80908;SDS011;70358;56.958;24.126;2023-12-20T05:41:46;6.75;;;1.52;;
80908;SDS011;70358;56.958;24.126;2023-12-20T05:44:12;4.47;;;1.38;;
80908;SDS011;70358;56.958;24.126;2023-12-20T05:46:38;7.20;;;1.60;;
80908;SDS011;70358;56.958;24.126;2023-12-20T05:49:05;6.10;;;1.60;;
80908;SDS011;70358;56.958;24.126;2023-12-20T05:51:30;6.00;;;1.52;;
80908;SDS011;70358;56.958;24.126;2023-12-20T05:53:55;6.57;;;1.77;;
80908;SDS011;70358;56.958;24.126;2023-12-20T05:56:21;4.10;;;1.80;;
80908;SDS011;70358;56.958;24.126;2023-12-20T05:58:47;4.88;;;1.42;;
80908;SDS011;70358;56.958;24.126;2023-12-20T06:01:14;6.55;;;1.58;;
80908;SDS011;70358;56.958;24.126;2023-12-20T06:03:43;9.20;;;1.77;;
80908;SDS011;70358;56.958;24.126;2023-12-20T06:06:09;5.22;;;1.45;;
80908;SDS011;70358;56.958;24.126;2023-12-20T06:08:35;6.53;;;1.88;;
80908;SDS011;70358;56.958;24.126;2023-12-20T06:11:01;13.55;;;2.17;;
80908;SDS011;70358;56.958;24.126;2023-12-20T06:13:26;4.22;;;1.20;;
80908;SDS011;70358;56.958;24.126;2023-12-20T06:15:52;5.18;;;1.67;;
80908;SDS011;70358;56.958;24.126;2023-12-20T06:20:44;8.10;;;1.80;;
80908;SDS011;70358;56.958;24.126;2023-12-20T06:23:09;11.00;;;1.73;;
80908;SDS011;70358;56.958;24.126;2023-12-20T06:25:35;16.60;;;2.42;;
80908;SDS011;70358;56.958;24.126;2023-12-20T06:28:03;22.83;;;2.58;;
80908;SDS011;70358;56.958;24.126;2023-12-20T06:30:30;16.15;;;2.20;;
80908;SDS011;70358;56.958;24.126;2023-12-20T06:33:01;18.40;;;2.22;;
80908;SDS011;70358;56.958;24.126;2023-12-20T06:35:27;19.85;;;3.15;;
80908;SDS011;70358;56.958;24.126;2023-12-20T06:37:53;16.67;;;2.38;;
80908;SDS011;70358;56.958;24.126;2023-12-20T06:40:18;14.27;;;2.60;;
80908;SDS011;70358;56.958;24.126;2023-12-20T06:42:44;13.63;;;2.00;;
80908;SDS011;70358;56.958;24.126;2023-12-20T06:45:11;15.18;;;2.58;;
80908;SDS011;70358;56.958;24.126;2023-12-20T06:47:37;14.48;;;2.20;;
80908;SDS011;70358;56.958;24.126;2023-12-20T06:50:05;9.88;;;2.63;;
80908;SDS011;70358;56.958;24.126;2023-12-20T06:52:30;12.18;;;2.13;;
80908;SDS011;70358;56.958;24.126;2023-12-20T06:55:02;17.90;;;2.38;;
80908;SDS011;70358;56.958;24.126;2023-12-20T06:57:34;14.60;;;2.28;;
80908;SDS011;70358;56.958;24.126;2023-12-20T07:00:01;16.48;;;2.25;;
80908;SDS011;70358;56.958;24.126;2023-12-20T07:02:28;12.15;;;2.28;;
80908;SDS011;70358;56.958;24.126;2023-12-20T07:04:55;11.00;;;2.13;;
80908;SDS011;70358;56.958;24.126;2023-12-20T07:07:21;15.82;;;2.42;;
80908;SDS011;70358;56.958;24.126;2023-12-20T07:09:48;23.00;;;2.88;;
80908;SDS011;70358;56.958;24.126;2023-12-20T07:12:13;17.42;;;2.63;;
80908;SDS011;70358;56.958;24.126;2023-12-20T07:14:39;18.85;;;2.83;;
80908;SDS011;70358;56.958;24.126;2023-12-20T07:17:04;21.58;;;3.25;;
80908;SDS011;70358;56.958;24.126;2023-12-20T07:19:30;18.05;;;2.95;;
80908;SDS011;70358;56.958;24.126;2023-12-20T07:21:55;22.98;;;2.75;;
80908;SDS011;70358;56.958;24.126;2023-12-20T07:24:21;13.57;;;3.50;;
80908;SDS011;70358;56.958;24.126;2023-12-20T07:26:46;17.63;;;2.90;;
80908;SDS011;70358;56.958;24.126;2023-12-20T07:29:11;35.83;;;4.30;;
80908;SDS011;70358;56.958;24.126;2023-12-20T07:31:37;23.85;;;2.55;;
80908;SDS011;70358;56.958;24.126;2023-12-20T07:34:04;14.45;;;2.40;;
80908;SDS011;70358;56.958;24.126;2023-12-20T07:36:30;22.15;;;2.65;;
80908;SDS011;70358;56.958;24.126;2023-12-20T07:38:55;19.50;;;3.10;;
80908;SDS011;70358;56.958;24.126;2023-12-20T07:41:23;14.70;;;2.60;;
80908;SDS011;70358;56.958;24.126;2023-12-20T07:43:49;20.88;;;2.65;;
80908;SDS011;70358;56.958;24.126;2023-12-20T07:46:14;25.23;;;3.53;;
80908;SDS011;70358;56.958;24.126;2023-12-20T07:48:39;11.57;;;2.92;;
80908;SDS011;70358;56.958;24.126;2023-12-20T07:51:06;23.33;;;3.03;;
80908;SDS011;70358;56.958;24.126;2023-12-20T07:53:34;15.50;;;3.42;;
80908;SDS011;70358;56.958;24.126;2023-12-20T07:56:01;20.50;;;3.40;;
80908;SDS011;70358;56.958;24.126;2023-12-20T07:58:26;18.88;;;3.38;;
80908;SDS011;70358;56.958;24.126;2023-12-20T08:00:51;18.98;;;3.47;;
80908;SDS011;70358;56.958;24.126;2023-12-20T08:03:17;15.20;;;2.38;;
80908;SDS011;70358;56.958;24.126;2023-12-20T08:05:42;25.02;;;2.75;;
80908;SDS011;70358;56.958;24.126;2023-12-20T08:08:07;15.15;;;2.95;;
80908;SDS011;70358;56.958;24.126;2023-12-20T08:10:33;21.88;;;3.20;;
80908;SDS011;70358;56.958;24.126;2023-12-20T08:12:58;18.48;;;3.50;;
80908;SDS011;70358;56.958;24.126;2023-12-20T08:15:24;16.42;;;3.75;;
80908;SDS011;70358;56.958;24.126;2023-12-20T08:17:49;20.35;;;3.58;;
80908;SDS011;70358;56.958;24.126;2023-12-20T08:20:18;22.48;;;2.85;;
80908;SDS011;70358;56.958;24.126;2023-12-20T08:22:45;32.42;;;3.85;;
80908;SDS011;70358;56.958;24.126;2023-12-20T08:25:11;20.92;;;3.90;;
80908;SDS011;70358;56.958;24.126;2023-12-20T08:27:40;37.72;;;4.53;;
80908;SDS011;70358;56.958;24.126;2023-12-20T08:30:06;23.65;;;3.40;;
80908;SDS011;70358;56.958;24.126;2023-12-20T08:32:33;29.08;;;3.78;;
80908;SDS011;70358;56.958;24.126;2023-12-20T08:34:59;34.28;;;4.78;;
80908;SDS011;70358;56.958;24.126;2023-12-20T08:37:24;19.00;;;4.53;;
80908;SDS011;70358;56.958;24.126;2023-12-20T08:39:50;18.70;;;3.60;;
80908;SDS011;70358;56.958;24.126;2023-12-20T08:42:16;21.25;;;3.90;;
80908;SDS011;70358;56.958;24.126;2023-12-20T08:44:42;21.07;;;3.17;;
80908;SDS011;70358;56.958;24.126;2023-12-20T08:47:07;29.55;;;3.80;;
80908;SDS011;70358;56.958;24.126;2023-12-20T08:49:43;32.53;;;4.95;;
80908;SDS011;70358;56.958;24.126;2023-12-20T08:52:09;24.77;;;4.45;;
80908;SDS011;70358;56.958;24.126;2023-12-20T08:54:34;16.02;;;3.83;;
80908;SDS011;70358;56.958;24.126;2023-12-20T08:56:59;18.45;;;3.67;;
80908;SDS011;70358;56.958;24.126;2023-12-20T08:59:25;15.30;;;3.30;;
80908;SDS011;70358;56.958;24.126;2023-12-20T09:01:50;12.90;;;3.25;;
80908;SDS011;70358;56.958;24.126;2023-12-20T09:04:19;17.70;;;3.50;;
80908;SDS011;70358;56.958;24.126;2023-12-20T09:06:45;14.45;;;3.55;;
80908;SDS011;70358;56.958;24.126;2023-12-20T09:09:12;14.30;;;4.28;;
80908;SDS011;70358;56.958;24.126;2023-12-20T09:11:39;15.05;;;3.58;;
80908;SDS011;70358;56.958;24.126;2023-12-20T09:14:04;22.77;;;4.18;;
80908;SDS011;70358;56.958;24.126;2023-12-20T09:16:30;15.73;;;3.22;;
80908;SDS011;70358;56.958;24.126;2023-12-20T09:18:56;13.32;;;3.20;;
80908;SDS011;70358;56.958;24.126;2023-12-20T09:21:25;24.60;;;3.80;;
80908;SDS011;70358;56.958;24.126;2023-12-20T09:24:01;17.95;;;3.97;;
80908;SDS011;70358;56.958;24.126;2023-12-20T09:26:33;32.13;;;3.53;;
80908;SDS011;70358;56.958;24.126;2023-12-20T09:28:59;16.88;;;3.78;;
80908;SDS011;70358;56.958;24.126;2023-12-20T09:31:24;29.95;;;3.97;;
80908;SDS011;70358;56.958;24.126;2023-12-20T09:33:50;20.58;;;3.25;;
80908;SDS011;70358;56.958;24.126;2023-12-20T09:36:15;23.73;;;3.85;;
80908;SDS011;70358;56.958;24.126;2023-12-20T09:38:40;24.30;;;4.13;;
80908;SDS011;70358;56.958;24.126;2023-12-20T09:41:07;14.45;;;3.53;;
80908;SDS011;70358;56.958;24.126;2023-12-20T09:43:33;21.60;;;4.00;;
80908;SDS011;70358;56.958;24.126;2023-12-20T09:46:00;27.58;;;3.83;;
80908;SDS011;70358;56.958;24.126;2023-12-20T09:48:30;20.15;;;3.83;;
80908;SDS011;70358;56.958;24.126;2023-12-20T09:50:56;26.48;;;4.05;;
80908;SDS011;70358;56.958;24.126;2023-12-20T09:53:22;24.80;;;3.95;;
80908;SDS011;70358;56.958;24.126;2023-12-20T09:55:54;19.95;;;4.55;;
80908;SDS011;70358;56.958;24.126;2023-12-20T09:58:24;16.85;;;3.45;;
80908;SDS011;70358;56.958;24.126;2023-12-20T10:00:49;15.10;;;3.33;;
80908;SDS011;70358;56.958;24.126;2023-12-20T10:03:16;21.38;;;3.58;;
80908;SDS011;70358;56.958;24.126;2023-12-20T10:05:41;16.02;;;3.08;;
80908;SDS011;70358;56.958;24.126;2023-12-20T10:08:08;27.90;;;3.60;;
80908;SDS011;70358;56.958;24.126;2023-12-20T10:10:33;19.45;;;4.10;;
80908;SDS011;70358;56.958;24.126;2023-12-20T10:15:28;18.83;;;3.28;;
80908;SDS011;70358;56.958;24.126;2023-12-20T10:17:54;13.20;;;3.65;;
80908;SDS011;70358;56.958;24.126;2023-12-20T10:20:20;23.42;;;3.47;;
80908;SDS011;70358;56.958;24.126;2023-12-20T10:22:46;15.95;;;3.35;;
80908;SDS011;70358;56.958;24.126;2023-12-20T10:25:12;20.27;;;4.13;;
80908;SDS011;70358;56.958;24.126;2023-12-20T10:27:38;16.00;;;4.03;;
80908;SDS011;70358;56.958;24.126;2023-12-20T10:30:03;26.30;;;3.93;;
80908;SDS011;70358;56.958;24.126;2023-12-20T10:32:29;23.15;;;4.10;;
80908;SDS011;70358;56.958;24.126;2023-12-20T10:34:56;23.35;;;4.65;;
80908;SDS011;70358;56.958;24.126;2023-12-20T10:37:22;28.58;;;4.60;;
80908;SDS011;70358;56.958;24.126;2023-12-20T10:39:49;23.55;;;4.28;;
80908;SDS011;70358;56.958;24.126;2023-12-20T10:42:16;27.00;;;3.92;;
80908;SDS011;70358;56.958;24.126;2023-12-20T10:44:41;19.17;;;3.83;;
80908;SDS011;70358;56.958;24.126;2023-12-20T10:47:07;22.85;;;5.00;;
80908;SDS011;70358;56.958;24.126;2023-12-20T10:49:34;19.15;;;4.10;;
80908;SDS011;70358;56.958;24.126;2023-12-20T10:52:01;18.13;;;4.70;;
80908;SDS011;70358;56.958;24.126;2023-12-20T10:54:28;15.50;;;4.13;;
80908;SDS011;70358;56.958;24.126;2023-12-20T10:56:53;26.23;;;4.47;;
80908;SDS011;70358;56.958;24.126;2023-12-20T10:59:20;22.05;;;3.47;;
80908;SDS011;70358;56.958;24.126;2023-12-20T11:01:47;23.98;;;3.45;;
80908;SDS011;70358;56.958;24.126;2023-12-20T11:04:15;27.23;;;3.45;;
80908;SDS011;70358;56.958;24.126;2023-12-20T11:06:47;17.88;;;5.22;;
80908;SDS011;70358;56.958;24.126;2023-12-20T11:09:19;21.77;;;4.13;;
80908;SDS011;70358;56.958;24.126;2023-12-20T11:14:54;34.08;;;5.10;;
80908;SDS011;70358;56.958;24.126;2023-12-20T11:17:19;31.85;;;4.60;;
80908;SDS011;70358;56.958;24.126;2023-12-20T11:22:22;39.13;;;5.57;;
80908;SDS011;70358;56.958;24.126;2023-12-20T11:24:49;29.27;;;5.90;;
80908;SDS011;70358;56.958;24.126;2023-12-20T11:27:15;27.65;;;4.50;;
80908;SDS011;70358;56.958;24.126;2023-12-20T11:29:41;37.13;;;4.68;;
80908;SDS011;70358;56.958;24.126;2023-12-20T11:34:53;28.42;;;4.97;;
80908;SDS011;70358;56.958;24.126;2023-12-20T11:37:19;31.60;;;4.68;;
80908;SDS011;70358;56.958;24.126;2023-12-20T11:39:56;38.13;;;5.10;;
80908;SDS011;70358;56.958;24.126;2023-12-20T11:42:25;18.70;;;3.55;;
80908;SDS011;70358;56.958;24.126;2023-12-20T11:44:51;24.50;;;3.85;;
80908;SDS011;70358;56.958;24.126;2023-12-20T11:47:16;28.92;;;4.10;;
80908;SDS011;70358;56.958;24.126;2023-12-20T11:49:44;26.67;;;4.85;;
80908;SDS011;70358;56.958;24.126;2023-12-20T11:52:12;32.15;;;4.43;;
80908;SDS011;70358;56.958;24.126;2023-12-20T11:54:38;19.67;;;4.53;;
80908;SDS011;70358;56.958;24.126;2023-12-20T11:57:04;21.98;;;3.83;;
80908;SDS011;70358;56.958;24.126;2023-12-20T11:59:30;24.30;;;4.13;;
80908;SDS011;70358;56.958;24.126;2023-12-20T12:01:56;24.05;;;4.20;;
80908;SDS011;70358;56.958;24.126;2023-12-20T12:04:25;24.83;;;4.95;;
80908;SDS011;70358;56.958;24.126;2023-12-20T12:06:51;18.27;;;4.15;;
80908;SDS011;70358;56.958;24.126;2023-12-20T12:09:17;24.80;;;4.05;;
80908;SDS011;70358;56.958;24.126;2023-12-20T12:11:42;17.40;;;3.58;;
80908;SDS011;70358;56.958;24.126;2023-12-20T12:14:08;18.73;;;4.82;;
80908;SDS011;70358;56.958;24.126;2023-12-20T12:16:33;19.75;;;3.38;;
80908;SDS011;70358;56.958;24.126;2023-12-20T12:18:59;25.45;;;4.57;;
80908;SDS011;70358;56.958;24.126;2023-12-20T12:21:25;20.67;;;4.15;;
80908;SDS011;70358;56.958;24.126;2023-12-20T12:23:51;27.08;;;4.00;;
80908;SDS011;70358;56.958;24.126;2023-12-20T12:26:16;22.55;;;3.78;;
80908;SDS011;70358;56.958;24.126;2023-12-20T12:28:42;18.80;;;3.38;;
80908;SDS011;70358;56.958;24.126;2023-12-20T12:31:17;16.52;;;3.80;;
80908;SDS011;70358;56.958;24.126;2023-12-20T12:33:42;15.00;;;2.88;;
80908;SDS011;70358;56.958;24.126;2023-12-20T12:36:09;18.20;;;3.63;;
80908;SDS011;70358;56.958;24.126;2023-12-20T12:41:01;9.53;;;2.90;;
80908;SDS011;70358;56.958;24.126;2023-12-20T12:43:27;22.73;;;3.67;;
80908;SDS011;70358;56.958;24.126;2023-12-20T12:45:52;14.27;;;3.15;;
80908;SDS011;70358;56.958;24.126;2023-12-20T12:48:18;17.55;;;3.55;;
80908;SDS011;70358;56.958;24.126;2023-12-20T12:50:45;19.70;;;4.47;;
80908;SDS011;70358;56.958;24.126;2023-12-20T12:55:36;20.63;;;3.50;;
80908;SDS011;70358;56.958;24.126;2023-12-20T12:58:01;15.98;;;3.33;;
80908;SDS011;70358;56.958;24.126;2023-12-20T13:00:27;20.67;;;4.43;;
80908;SDS011;70358;56.958;24.126;2023-12-20T13:02:52;14.98;;;3.70;;
80908;SDS011;70358;56.958;24.126;2023-12-20T13:05:18;13.73;;;3.10;;
80908;SDS011;70358;56.958;24.126;2023-12-20T13:07:43;12.73;;;4.35;;
80908;SDS011;70358;56.958;24.126;2023-12-20T13:10:10;18.48;;;3.67;;
80908;SDS011;70358;56.958;24.126;2023-12-20T13:12:36;17.13;;;4.00;;
80908;SDS011;70358;56.958;24.126;2023-12-20T13:15:01;17.20;;;3.65;;
80908;SDS011;70358;56.958;24.126;2023-12-20T13:17:28;19.30;;;3.58;;
80908;SDS011;70358;56.958;24.126;2023-12-20T13:19:54;25.15;;;5.38;;
80908;SDS011;70358;56.958;24.126;2023-12-20T13:22:20;19.25;;;4.50;;
80908;SDS011;70358;56.958;24.126;2023-12-20T13:24:45;16.40;;;4.22;;
80908;SDS011;70358;56.958;24.126;2023-12-20T13:27:11;15.55;;;4.28;;
80908;SDS011;70358;56.958;24.126;2023-12-20T13:29:36;20.85;;;4.25;;
80908;SDS011;70358;56.958;24.126;2023-12-20T13:32:03;25.00;;;4.35;;
80908;SDS011;70358;56.958;24.126;2023-12-20T13:34:30;17.90;;;4.07;;
80908;SDS011;70358;56.958;24.126;2023-12-20T13:36:55;17.65;;;3.78;;
80908;SDS011;70358;56.958;24.126;2023-12-20T13:39:21;19.92;;;4.40;;
80908;SDS011;70358;56.958;24.126;2023-12-20T13:41:47;17.15;;;4.40;;
80908;SDS011;70358;56.958;24.126;2023-12-20T13:44:12;15.07;;;3.50;;
80908;SDS011;70358;56.958;24.126;2023-12-20T13:46:38;26.92;;;5.75;;
80908;SDS011;70358;56.958;24.126;2023-12-20T13:49:04;22.40;;;4.32;;
80908;SDS011;70358;56.958;24.126;2023-12-20T13:51:30;19.38;;;4.72;;
80908;SDS011;70358;56.958;24.126;2023-12-20T13:53:56;22.63;;;4.55;;
80908;SDS011;70358;56.958;24.126;2023-12-20T13:56:22;18.80;;;5.38;;
80908;SDS011;70358;56.958;24.126;2023-12-20T13:58:48;16.48;;;4.53;;
80908;SDS011;70358;56.958;24.126;2023-12-20T14:01:15;21.92;;;4.35;;
80908;SDS011;70358;56.958;24.126;2023-12-20T14:03:40;18.08;;;4.68;;
80908;SDS011;70358;56.958;24.126;2023-12-20T14:06:06;22.10;;;4.85;;
80908;SDS011;70358;56.958;24.126;2023-12-20T14:08:31;14.18;;;3.75;;
80908;SDS011;70358;56.958;24.126;2023-12-20T14:10:57;19.13;;;4.43;;
80908;SDS011;70358;56.958;24.126;2023-12-20T14:13:22;14.57;;;3.80;;
80908;SDS011;70358;56.958;24.126;2023-12-20T14:15:48;18.10;;;4.40;;
80908;SDS011;70358;56.958;24.126;2023-12-20T14:18:14;16.60;;;4.53;;
80908;SDS011;70358;56.958;24.126;2023-12-20T14:20:40;13.77;;;3.40;;
80908;SDS011;70358;56.958;24.126;2023-12-20T14:23:07;16.58;;;4.38;;
80908;SDS011;70358;56.958;24.126;2023-12-20T14:25:34;16.40;;;3.92;;
80908;SDS011;70358;56.958;24.126;2023-12-20T14:28:02;12.48;;;3.58;;
80908;SDS011;70358;56.958;24.126;2023-12-20T14:30:28;15.93;;;3.55;;
80908;SDS011;70358;56.958;24.126;2023-12-20T14:32:53;15.97;;;3.90;;
80908;SDS011;70358;56.958;24.126;2023-12-20T14:35:19;22.23;;;4.40;;
80908;SDS011;70358;56.958;24.126;2023-12-20T14:37:44;20.77;;;5.25;;
80908;SDS011;70358;56.958;24.126;2023-12-20T14:40:10;17.65;;;3.83;;
80908;SDS011;70358;56.958;24.126;2023-12-20T14:42:40;13.65;;;3.17;;